Time;durP1;ratioP1;P1;durP2;ratioP2;P2;SDS_P1;SDS_P2;PMS_P1;PMS_P2;Temp;Humidity;BMP_temperature;BMP_pressure;BME280_temperature;BME280_humidity;BME280_pressure;Samples;Min_cycle;Max_cycle;Signal;HPM_P1;HPM_P2
2023/09/25 00:01:00;;;;;;;1.00;0.50;;;22.90;45.40;;;;;;5031963;28;20025;-58
2023/09/25 00:03:26;;;;;;;1.10;0.65;;;22.90;45.40;;;;;;5034194;28;20029;-59
2023/09/25 00:05:52;;;;;;;1.48;0.70;;;22.90;45.40;;;;;;5035787;28;20021;-59
2023/09/25 00:08:17;;;;;;;1.83;0.70;;;23.00;46.00;;;;;;5038951;28;20133;-57
2023/09/25 00:10:43;;;;;;;1.10;0.70;;;22.90;45.40;;;;;;5014486;28;20037;-62
2023/09/25 00:13:09;;;;;;;0.65;0.50;;;22.90;45.40;;;;;;5020428;28;20103;-60
2023/09/25 00:15:40;;;;;;;1.17;0.80;;;22.90;45.40;;;;;;5030053;28;20472;-57
2023/09/25 00:18:06;;;;;;;1.08;0.60;;;22.90;45.40;;;;;;5035571;28;20083;-60
2023/09/25 00:20:33;;;;;;;1.02;0.60;;;22.90;45.40;;;;;;5031729;28;20030;-60
2023/09/25 00:22:59;;;;;;;0.98;0.60;;;22.90;45.40;;;;;;5033455;28;20294;-59
2023/09/25 00:25:28;;;;;;;1.13;0.60;;;22.90;45.40;;;;;;5035409;28;20078;-60
2023/09/25 00:27:54;;;;;;;1.75;0.90;;;22.90;45.40;;;;;;5034417;28;20088;-60
2023/09/25 00:30:20;;;;;;;1.83;0.52;;;22.90;45.40;;;;;;5031467;28;20029;-59
2023/09/25 00:32:46;;;;;;;1.20;0.50;;;22.90;45.40;;;;;;5034980;28;20110;-58
2023/09/25 00:35:12;;;;;;;0.73;0.70;;;22.90;45.40;;;;;;5029641;28;20387;-58
2023/09/25 00:37:39;;;;;;;1.00;0.77;;;22.90;45.40;;;;;;5032254;28;20030;-62
2023/09/25 00:40:13;;;;;;;0.88;0.65;;;22.90;45.30;;;;;;5031118;28;20041;-61
2023/09/25 00:42:45;;;;;;;0.85;0.52;;;22.90;45.30;;;;;;5040217;28;20029;-57
2023/09/25 00:45:11;;;;;;;1.38;0.80;;;22.90;45.60;;;;;;5036169;28;20029;-61
2023/09/25 00:47:42;;;;;;;0.70;0.50;;;22.90;45.40;;;;;;5042207;28;20404;-60
2023/09/25 00:50:09;;;;;;;0.82;0.63;;;22.90;45.30;;;;;;5030659;28;20105;-58
2023/09/25 00:52:39;;;;;;;1.08;0.63;;;22.80;45.30;;;;;;5039480;28;20124;-59
2023/09/25 00:55:06;;;;;;;1.17;0.70;;;22.90;45.30;;;;;;5033278;28;20082;-59
2023/09/25 00:57:35;;;;;;;1.92;0.63;;;22.90;45.40;;;;;;5017002;28;20029;-58
2023/09/25 01:00:03;;;;;;;1.00;0.70;;;22.90;45.40;;;;;;5025710;28;20332;-59
2023/09/25 01:02:31;;;;;;;1.00;0.57;;;22.80;45.30;;;;;;5028961;28;20309;-58
2023/09/25 01:05:02;;;;;;;0.57;0.50;;;22.80;45.30;;;;;;5037955;28;20025;-58
2023/09/25 01:07:29;;;;;;;0.80;0.52;;;22.80;45.30;;;;;;5038596;28;20108;-61
2023/09/25 01:10:08;;;;;;;1.23;0.80;;;22.80;45.30;;;;;;5043277;28;20487;-58
2023/09/25 01:12:37;;;;;;;1.50;0.80;;;22.80;45.30;;;;;;5037654;28;20070;-60
2023/09/25 01:15:04;;;;;;;1.00;0.75;;;22.80;45.20;;;;;;5035093;28;20416;-57
2023/09/25 01:17:31;;;;;;;1.13;0.80;;;22.80;45.30;;;;;;5022801;28;20044;-60
2023/09/25 01:19:59;;;;;;;1.05;0.57;;;22.80;45.20;;;;;;5042747;28;20104;-56
2023/09/25 01:22:25;;;;;;;0.90;0.65;;;22.80;45.30;;;;;;5019038;28;20351;-59
2023/09/25 01:24:51;;;;;;;1.33;0.52;;;22.80;45.20;;;;;;5034632;28;20056;-60
2023/09/25 01:27:17;;;;;;;0.70;0.57;;;22.80;45.20;;;;;;5041560;28;20086;-59
2023/09/25 01:29:43;;;;;;;1.23;0.55;;;22.80;45.20;;;;;;5041621;28;20075;-59
2023/09/25 01:32:09;;;;;;;1.60;0.88;;;22.80;45.20;;;;;;5042536;28;20103;-58
2023/09/25 01:34:35;;;;;;;1.20;0.70;;;22.80;45.20;;;;;;5034432;28;20049;-56
2023/09/25 01:37:04;;;;;;;0.70;0.50;;;22.80;45.20;;;;;;5020896;28;20076;-57
2023/09/25 01:39:35;;;;;;;0.88;0.60;;;22.80;45.20;;;;;;5033941;28;20025;-58
2023/09/25 01:42:01;;;;;;;0.85;0.60;;;22.80;45.30;;;;;;5045662;28;21207;-59
2023/09/25 01:44:28;;;;;;;0.80;0.60;;;22.80;45.30;;;;;;5035490;28;20123;-58
2023/09/25 01:46:56;;;;;;;1.15;0.75;;;22.80;45.20;;;;;;5018010;28;20017;-59
2023/09/25 01:49:23;;;;;;;1.02;0.70;;;22.70;45.20;;;;;;5037230;28;20022;-59
2023/09/25 01:51:49;;;;;;;2.00;0.77;;;22.70;45.20;;;;;;5032198;28;20099;-59
2023/09/25 01:54:15;;;;;;;1.13;0.50;;;22.70;45.20;;;;;;5039540;28;20044;-60
2023/09/25 01:56:41;;;;;;;2.05;0.55;;;22.70;45.20;;;;;;5036234;28;20073;-59
2023/09/25 01:59:07;;;;;;;1.42;0.70;;;22.70;45.20;;;;;;5019692;28;20029;-59
2023/09/25 02:01:33;;;;;;;1.15;0.60;;;22.70;45.20;;;;;;5024155;28;20051;-58
2023/09/25 02:03:59;;;;;;;1.23;0.50;;;22.80;45.30;;;;;;5033457;28;20025;-58
2023/09/25 02:06:25;;;;;;;1.13;0.50;;;22.70;45.20;;;;;;5036213;28;20029;-59
2023/09/25 02:08:50;;;;;;;0.80;0.50;;;22.70;45.20;;;;;;5033856;28;20040;-59
2023/09/25 02:11:16;;;;;;;0.80;0.68;;;22.70;45.20;;;;;;5020168;28;20025;-59
2023/09/25 02:13:42;;;;;;;1.27;0.60;;;22.70;45.20;;;;;;5016895;28;20068;-60
2023/09/25 02:16:09;;;;;;;0.68;0.50;;;22.70;45.20;;;;;;5036874;28;20048;-59
2023/09/25 02:18:35;;;;;;;1.08;0.70;;;22.70;45.20;;;;;;5022005;28;20037;-59
2023/09/25 02:21:01;;;;;;;0.70;0.47;;;22.70;45.20;;;;;;5018614;28;20337;-59
2023/09/25 02:23:27;;;;;;;1.10;0.68;;;22.70;45.30;;;;;;5026642;28;20083;-59
2023/09/25 02:25:52;;;;;;;1.95;0.68;;;22.70;45.20;;;;;;5024830;28;20404;-60
2023/09/25 02:28:19;;;;;;;1.25;0.80;;;22.70;45.20;;;;;;5027749;28;20033;-58
2023/09/25 02:30:46;;;;;;;1.67;0.60;;;22.70;45.30;;;;;;5014018;28;20033;-57
2023/09/25 02:33:12;;;;;;;0.65;0.50;;;22.70;45.30;;;;;;5036656;28;20068;-54
2023/09/25 02:35:37;;;;;;;0.70;0.60;;;22.70;45.30;;;;;;5038376;28;20030;-58
2023/09/25 02:38:05;;;;;;;1.67;0.70;;;22.70;45.30;;;;;;5031172;28;20091;-59
2023/09/25 02:40:32;;;;;;;1.25;0.77;;;22.70;45.30;;;;;;5013814;28;20032;-56
2023/09/25 02:42:58;;;;;;;0.95;0.60;;;22.60;45.20;;;;;;5031578;28;20106;-59
2023/09/25 02:45:24;;;;;;;1.23;0.60;;;22.70;45.30;;;;;;5039641;28;20091;-61
2023/09/25 02:47:50;;;;;;;1.33;0.70;;;22.70;45.30;;;;;;5024823;28;20032;-57
2023/09/25 02:50:16;;;;;;;0.75;0.60;;;22.70;45.30;;;;;;5045547;28;20032;-62
2023/09/25 02:52:43;;;;;;;1.38;0.88;;;22.60;45.30;;;;;;5031337;28;20315;-56
2023/09/25 02:55:10;;;;;;;1.38;0.60;;;22.70;45.30;;;;;;5016928;28;20048;-57
2023/09/25 02:57:36;;;;;;;1.45;0.80;;;22.60;45.30;;;;;;5014230;28;20100;-60
2023/09/25 03:00:08;;;;;;;1.67;0.80;;;22.70;45.30;;;;;;5042339;28;20354;-60
2023/09/25 03:02:34;;;;;;;1.42;0.65;;;22.60;45.30;;;;;;5036617;28;20028;-59
2023/09/25 03:05:00;;;;;;;1.75;0.82;;;22.70;45.30;;;;;;5045515;28;20397;-60
2023/09/25 03:07:27;;;;;;;0.98;0.60;;;22.60;45.30;;;;;;5042941;28;20025;-60
2023/09/25 03:09:53;;;;;;;2.80;0.80;;;22.60;45.30;;;;;;5047138;28;20114;-58
2023/09/25 03:12:19;;;;;;;1.20;0.70;;;22.60;45.30;;;;;;5047044;28;20029;-60
2023/09/25 03:14:45;;;;;;;1.27;0.80;;;22.60;45.30;;;;;;5012179;28;20040;-61
2023/09/25 03:17:12;;;;;;;1.60;0.73;;;22.60;45.30;;;;;;5022138;28;20044;-59
2023/09/25 03:19:38;;;;;;;1.33;0.70;;;22.60;45.30;;;;;;5047458;28;20063;-60
2023/09/25 03:22:04;;;;;;;1.27;0.80;;;22.60;45.40;;;;;;5025771;28;20052;-58
2023/09/25 03:24:31;;;;;;;1.60;0.80;;;22.60;45.40;;;;;;5029386;28;20022;-57
2023/09/25 03:26:56;;;;;;;1.15;0.50;;;22.60;45.40;;;;;;5027110;28;20017;-56
2023/09/25 03:29:23;;;;;;;1.05;0.90;;;22.60;45.40;;;;;;5025304;28;20455;-58
2023/09/25 03:31:50;;;;;;;0.73;0.60;;;22.60;45.40;;;;;;5025258;28;20035;-61
2023/09/25 03:34:16;;;;;;;1.55;0.60;;;22.60;45.40;;;;;;5007590;28;20064;-58
2023/09/25 03:36:42;;;;;;;1.65;0.82;;;22.60;45.40;;;;;;5005572;28;20029;-59
2023/09/25 03:39:08;;;;;;;1.50;0.80;;;22.60;45.40;;;;;;5006060;28;20038;-60
2023/09/25 03:41:34;;;;;;;1.13;0.68;;;22.60;45.40;;;;;;5004737;28;20026;-57
2023/09/25 03:44:00;;;;;;;0.93;0.60;;;22.60;45.40;;;;;;5004911;28;20026;-61
2023/09/25 03:46:28;;;;;;;0.90;0.68;;;22.60;45.40;;;;;;4999979;28;20035;-55
2023/09/25 03:48:54;;;;;;;2.10;0.70;;;22.60;45.40;;;;;;4997611;28;20436;-58
2023/09/25 03:51:19;;;;;;;0.80;0.50;;;22.50;45.40;;;;;;5006296;28;20437;-59
2023/09/25 03:53:45;;;;;;;0.90;0.65;;;22.50;45.40;;;;;;4987794;28;20057;-59
2023/09/25 03:56:11;;;;;;;0.60;0.50;;;22.60;45.50;;;;;;5007983;28;20403;-60
2023/09/25 03:58:37;;;;;;;1.00;0.68;;;22.60;45.50;;;;;;5006084;28;20452;-58
2023/09/25 04:01:03;;;;;;;1.45;0.85;;;22.60;45.50;;;;;;5005276;28;20021;-57
2023/09/25 04:03:29;;;;;;;1.25;0.70;;;22.50;45.50;;;;;;5007532;28;20041;-58
2023/09/25 04:05:55;;;;;;;1.13;0.80;;;22.60;46.10;;;;;;5007471;28;20022;-60
2023/09/25 04:08:21;;;;;;;2.22;0.68;;;22.60;45.50;;;;;;5003506;28;20111;-55
2023/09/25 04:10:47;;;;;;;1.60;0.80;;;22.60;45.50;;;;;;5007235;28;20097;-57
2023/09/25 04:13:15;;;;;;;1.48;0.70;;;22.50;45.40;;;;;;5006303;28;20034;-60
2023/09/25 04:15:41;;;;;;;1.45;0.90;;;22.60;45.50;;;;;;5005587;28;20106;-57
2023/09/25 04:18:08;;;;;;;0.63;0.50;;;22.60;45.50;;;;;;5003955;28;20467;-57
2023/09/25 04:20:34;;;;;;;2.60;0.70;;;22.50;45.50;;;;;;5010936;28;20402;-56
2023/09/25 04:23:00;;;;;;;0.70;0.60;;;22.50;45.50;;;;;;5009507;28;20030;-59
2023/09/25 04:25:27;;;;;;;0.80;0.63;;;22.50;45.50;;;;;;5011021;28;20377;-57
2023/09/25 04:27:55;;;;;;;0.90;0.70;;;22.50;45.50;;;;;;5010367;28;20054;-59
2023/09/25 04:30:23;;;;;;;0.85;0.63;;;22.50;45.50;;;;;;5010964;28;20472;-59
2023/09/25 04:32:53;;;;;;;0.82;0.70;;;22.50;45.50;;;;;;5014573;28;20158;-61
2023/09/25 04:35:20;;;;;;;0.95;0.63;;;22.50;45.50;;;;;;5047700;28;20052;-59
2023/09/25 04:37:46;;;;;;;1.15;0.80;;;22.50;45.50;;;;;;5049641;28;20033;-61
2023/09/25 04:40:22;;;;;;;1.23;0.63;;;22.50;45.50;;;;;;5050063;28;20079;-59
2023/09/25 04:42:49;;;;;;;1.17;0.68;;;22.50;45.50;;;;;;5048188;28;20318;-56
2023/09/25 04:45:18;;;;;;;1.25;0.60;;;22.50;45.50;;;;;;5028848;28;20025;-59
2023/09/25 04:47:45;;;;;;;1.05;0.80;;;22.50;45.50;;;;;;5049753;28;20028;-59
2023/09/25 04:50:11;;;;;;;1.30;0.57;;;22.50;45.50;;;;;;5048803;28;20067;-60
2023/09/25 04:52:46;;;;;;;1.55;0.60;;;22.50;45.50;;;;;;5049899;28;20040;-61
2023/09/25 04:55:13;;;;;;;1.00;0.70;;;22.50;45.50;;;;;;5043379;28;20037;-59
2023/09/25 04:57:40;;;;;;;1.13;0.70;;;22.50;45.50;;;;;;5029417;28;20033;-59
2023/09/25 05:00:26;;;;;;;0.90;0.68;;;22.50;45.50;;;;;;5049042;28;20895;-59
2023/09/25 05:02:53;;;;;;;0.85;0.60;;;22.50;45.50;;;;;;5047356;28;20037;-60
2023/09/25 05:05:19;;;;;;;0.90;0.50;;;22.50;45.50;;;;;;5049530;28;20021;-57
2023/09/25 05:07:50;;;;;;;0.88;0.70;;;22.50;45.50;;;;;;5046600;28;20029;-59
2023/09/25 05:10:18;;;;;;;1.00;0.60;;;22.50;45.50;;;;;;5042184;28;20188;-57
2023/09/25 05:12:45;;;;;;;0.68;0.60;;;22.50;45.50;;;;;;5041724;28;20025;-57
2023/09/25 05:15:12;;;;;;;1.13;0.65;;;22.50;45.50;;;;;;5048185;28;20467;-60
2023/09/25 05:17:39;;;;;;;1.50;0.50;;;22.50;45.50;;;;;;5028821;28;20479;-58
2023/09/25 05:20:13;;;;;;;1.00;0.70;;;22.40;45.50;;;;;;5049357;28;20148;-57
2023/09/25 05:22:40;;;;;;;1.10;0.57;;;22.40;45.40;;;;;;5030158;28;20043;-59
2023/09/25 05:25:08;;;;;;;1.25;0.60;;;22.40;45.40;;;;;;5045423;28;20025;-61
2023/09/25 05:27:35;;;;;;;1.25;0.88;;;22.40;45.50;;;;;;5049861;28;20033;-58
2023/09/25 05:30:03;;;;;;;0.95;0.50;;;22.40;45.40;;;;;;5048238;28;20062;-59
2023/09/25 05:32:29;;;;;;;1.00;0.73;;;22.40;45.50;;;;;;5028086;28;20043;-54
2023/09/25 05:34:55;;;;;;;1.33;0.70;;;22.40;45.50;;;;;;5047785;28;20067;-57
2023/09/25 05:37:20;;;;;;;1.15;0.82;;;22.50;45.50;;;;;;5027096;28;20032;-61
2023/09/25 05:39:46;;;;;;;1.63;0.80;;;22.40;45.50;;;;;;5048862;28;20032;-58
2023/09/25 05:42:12;;;;;;;1.67;0.90;;;22.40;45.50;;;;;;5047073;28;20029;-56
2023/09/25 05:44:38;;;;;;;1.45;0.65;;;22.40;45.50;;;;;;5048406;28;20033;-58
2023/09/25 05:47:04;;;;;;;1.50;0.80;;;22.40;45.50;;;;;;5049235;28;20091;-60
2023/09/25 05:49:30;;;;;;;1.48;1.02;;;22.40;45.50;;;;;;5049124;28;20048;-61
2023/09/25 05:51:55;;;;;;;1.10;0.80;;;22.40;45.50;;;;;;5048731;28;20032;-55
2023/09/25 05:54:21;;;;;;;2.55;0.70;;;22.40;45.50;;;;;;5046869;28;20068;-60
2023/09/25 05:56:48;;;;;;;1.83;0.80;;;22.40;45.50;;;;;;5046775;28;20101;-61
2023/09/25 05:59:14;;;;;;;1.55;0.80;;;22.40;45.50;;;;;;5028218;28;20033;-58
2023/09/25 06:01:40;;;;;;;1.27;0.80;;;22.40;45.50;;;;;;5047029;28;20071;-59
2023/09/25 06:04:06;;;;;;;0.60;0.55;;;22.40;45.50;;;;;;5046885;28;20037;-59
2023/09/25 06:06:35;;;;;;;1.58;0.70;;;22.40;45.50;;;;;;5046911;28;20029;-59
2023/09/25 06:09:02;;;;;;;1.50;0.77;;;22.40;45.50;;;;;;5046927;28;20184;-60
2023/09/25 06:11:28;;;;;;;1.02;0.80;;;22.40;45.50;;;;;;5018872;28;20026;-59
2023/09/25 06:13:54;;;;;;;1.23;0.75;;;22.40;45.50;;;;;;5048476;28;20112;-57
2023/09/25 06:16:20;;;;;;;1.70;0.80;;;22.40;45.50;;;;;;5047163;28;20456;-60
2023/09/25 06:18:47;;;;;;;0.98;0.70;;;22.40;45.40;;;;;;5045849;28;20123;-61
2023/09/25 06:21:13;;;;;;;1.42;0.85;;;22.40;45.50;;;;;;5045726;28;20056;-60
2023/09/25 06:23:40;;;;;;;0.98;0.55;;;22.40;45.50;;;;;;5047403;28;20059;-58
2023/09/25 06:26:09;;;;;;;0.80;0.60;;;22.40;45.50;;;;;;5039362;28;20477;-59
2023/09/25 06:28:37;;;;;;;1.13;0.70;;;22.40;45.50;;;;;;5047072;28;20084;-58
2023/09/25 06:31:04;;;;;;;1.02;0.65;;;22.40;45.50;;;;;;5028132;28;20021;-60
2023/09/25 06:33:29;;;;;;;1.35;0.70;;;22.40;45.50;;;;;;5045753;28;20041;-59
2023/09/25 06:35:55;;;;;;;1.17;0.70;;;22.40;45.50;;;;;;5044326;28;20347;-60
2023/09/25 06:38:22;;;;;;;3.38;0.70;;;22.40;45.50;;;;;;5047439;28;20097;-61
2023/09/25 06:40:48;;;;;;;2.75;0.88;;;22.40;45.50;;;;;;5045852;28;20457;-58
2023/09/25 06:43:14;;;;;;;1.40;0.70;;;22.40;45.50;;;;;;5045473;28;20044;-59
2023/09/25 06:45:40;;;;;;;0.90;0.77;;;22.40;45.50;;;;;;5044384;28;20413;-59
2023/09/25 06:48:07;;;;;;;1.48;0.77;;;22.40;45.50;;;;;;5048283;28;20021;-60
2023/09/25 06:50:33;;;;;;;1.20;0.70;;;22.40;45.40;;;;;;5047892;28;20124;-61
2023/09/25 06:52:59;;;;;;;1.65;0.90;;;22.40;45.40;;;;;;5046908;28;20055;-58
2023/09/25 06:55:25;;;;;;;1.10;0.80;;;22.40;45.40;;;;;;5045432;28;20119;-60
2023/09/25 06:57:51;;;;;;;1.25;0.70;;;22.40;45.40;;;;;;5043213;28;20063;-60
2023/09/25 07:00:18;;;;;;;1.40;0.70;;;22.40;45.40;;;;;;5047207;28;20486;-59
2023/09/25 07:02:45;;;;;;;1.52;0.80;;;22.50;45.50;;;;;;5044170;28;20067;-56
2023/09/25 07:05:11;;;;;;;1.27;0.85;;;22.40;45.40;;;;;;5045359;28;20021;-61
2023/09/25 07:07:38;;;;;;;2.20;0.80;;;22.40;45.40;;;;;;5045605;28;20040;-62
2023/09/25 07:10:06;;;;;;;1.13;0.80;;;22.40;45.40;;;;;;5042994;28;20040;-59
2023/09/25 07:12:36;;;;;;;1.50;0.80;;;22.50;45.50;;;;;;5039972;28;20045;-60
2023/09/25 07:15:03;;;;;;;1.58;0.70;;;22.50;45.50;;;;;;5043738;28;20041;-61
2023/09/25 07:17:30;;;;;;;1.40;0.80;;;22.50;45.60;;;;;;5026537;28;20037;-61
2023/09/25 07:19:57;;;;;;;1.35;0.68;;;22.50;46.20;;;;;;5026923;28;20059;-57
2023/09/25 07:22:27;;;;;;;2.88;1.00;;;22.50;45.60;;;;;;5027793;28;20045;-64
2023/09/25 07:24:54;;;;;;;1.73;1.00;;;22.50;45.60;;;;;;5045010;28;20086;-60
2023/09/25 07:27:21;;;;;;;2.42;1.10;;;22.50;45.60;;;;;;5043035;28;20033;-60
2023/09/25 07:29:48;;;;;;;1.25;0.82;;;22.50;46.20;;;;;;5041876;28;20084;-61
2023/09/25 07:32:15;;;;;;;1.98;0.90;;;22.50;45.50;;;;;;5022596;28;20094;-63
2023/09/25 07:34:42;;;;;;;1.90;0.90;;;22.50;45.50;;;;;;5046656;28;20065;-60
2023/09/25 07:37:09;;;;;;;1.98;0.80;;;22.50;45.50;;;;;;5046050;28;20409;-60
2023/09/25 07:39:39;;;;;;;1.23;0.60;;;22.50;45.40;;;;;;5046640;28;20113;-60
2023/09/25 07:42:07;;;;;;;1.90;0.85;;;22.50;45.40;;;;;;5045694;28;20115;-61
2023/09/25 07:44:36;;;;;;;1.20;0.80;;;22.50;45.40;;;;;;5043178;28;20109;-61
2023/09/25 07:47:06;;;;;;;1.25;0.73;;;22.60;45.40;;;;;;5029525;28;20199;-62
2023/09/25 07:49:40;;;;;;;1.65;0.98;;;22.60;45.30;;;;;;5047598;28;20064;-61
2023/09/25 07:52:16;;;;;;;1.65;0.80;;;22.60;45.30;;;;;;5049376;28;20084;-60
2023/09/25 07:54:46;;;;;;;1.20;0.98;;;22.60;45.30;;;;;;5043500;28;20058;-62
2023/09/25 07:57:14;;;;;;;1.08;0.80;;;22.60;45.20;;;;;;5041869;28;20080;-56
2023/09/25 07:59:40;;;;;;;1.20;0.85;;;22.60;45.20;;;;;;5049613;28;20385;-62
2023/09/25 08:02:07;;;;;;;1.42;0.80;;;22.60;45.10;;;;;;5046670;28;20025;-63
2023/09/25 08:04:35;;;;;;;1.83;0.90;;;22.60;45.10;;;;;;5016136;28;20040;-60
2023/09/25 08:07:04;;;;;;;1.60;0.90;;;22.60;45.10;;;;;;5043325;28;20105;-61
2023/09/25 08:09:31;;;;;;;1.17;0.60;;;22.60;45.00;;;;;;5022663;28;20029;-61
2023/09/25 08:11:57;;;;;;;1.35;0.82;;;22.60;45.00;;;;;;5050617;28;20025;-64
2023/09/25 08:14:24;;;;;;;1.33;0.93;;;22.60;45.00;;;;;;5050523;28;20033;-62
2023/09/25 08:16:50;;;;;;;1.38;0.80;;;22.60;44.90;;;;;;5029733;28;20045;-61
2023/09/25 08:19:17;;;;;;;1.85;1.10;;;22.60;44.90;;;;;;5047115;28;20033;-61
2023/09/25 08:21:44;;;;;;;1.52;0.90;;;22.60;44.90;;;;;;5047829;28;20108;-60
2023/09/25 08:24:10;;;;;;;1.27;0.90;;;22.60;44.80;;;;;;5032568;28;20347;-63
2023/09/25 08:26:36;;;;;;;1.27;0.98;;;22.70;44.90;;;;;;5049883;28;20029;-62
2023/09/25 08:29:05;;;;;;;2.53;1.08;;;22.60;44.80;;;;;;5032496;28;20029;-63
2023/09/25 08:31:34;;;;;;;1.90;1.02;;;22.70;44.90;;;;;;5050178;28;20060;-62
2023/09/25 08:34:00;;;;;;;1.80;1.10;;;22.70;44.80;;;;;;5028032;28;20055;-60
2023/09/25 08:36:26;;;;;;;2.10;0.90;;;22.70;44.80;;;;;;5049385;28;20301;-62
2023/09/25 08:38:52;;;;;;;1.30;1.00;;;22.70;44.80;;;;;;5050388;28;20079;-60
2023/09/25 08:41:19;;;;;;;1.20;0.80;;;22.70;44.80;;;;;;5047642;28;20103;-64
2023/09/25 08:43:47;;;;;;;1.00;0.88;;;22.70;44.80;;;;;;5049715;28;20033;-62
2023/09/25 08:46:13;;;;;;;0.73;0.60;;;22.70;44.80;;;;;;5032469;28;20127;-61
2023/09/25 08:48:39;;;;;;;1.60;1.08;;;22.70;44.70;;;;;;5050384;28;20029;-65
2023/09/25 08:51:06;;;;;;;2.03;0.90;;;22.70;44.70;;;;;;5026702;28;20039;-63
2023/09/25 08:53:33;;;;;;;1.48;0.88;;;22.70;44.70;;;;;;5046167;28;20093;-62
2023/09/25 08:55:59;;;;;;;1.38;0.80;;;22.70;44.70;;;;;;5050334;28;20025;-63
2023/09/25 08:58:26;;;;;;;1.48;0.80;;;22.70;44.70;;;;;;5029788;28;20033;-60
2023/09/25 09:00:53;;;;;;;1.35;0.88;;;22.70;44.70;;;;;;5028547;28;20402;-63
2023/09/25 09:03:20;;;;;;;2.28;1.05;;;22.70;44.60;;;;;;5049421;28;20031;-63
2023/09/25 09:05:46;;;;;;;3.03;1.00;;;22.80;44.70;;;;;;5049950;28;20093;-63
2023/09/25 09:08:16;;;;;;;2.78;0.98;;;22.80;44.60;;;;;;5044855;28;20104;-63
2023/09/25 09:10:44;;;;;;;1.05;0.80;;;22.80;44.60;;;;;;5049632;28;20025;-63
2023/09/25 09:13:10;;;;;;;1.38;0.80;;;22.80;44.60;;;;;;5048736;28;20174;-62
2023/09/25 09:15:38;;;;;;;1.83;0.93;;;22.80;44.60;;;;;;5049353;28;20090;-63
2023/09/25 09:18:21;;;;;;;2.58;1.17;;;22.80;45.20;;;;;;5044497;28;20032;-63
2023/09/25 09:20:47;;;;;;;1.27;0.82;;;22.80;44.50;;;;;;5048449;28;20082;-63
2023/09/25 09:23:14;;;;;;;1.42;0.93;;;22.80;44.50;;;;;;5048693;28;21247;-61
2023/09/25 09:25:44;;;;;;;1.52;0.82;;;22.80;44.50;;;;;;5046893;28;20033;-62
2023/09/25 09:28:10;;;;;;;1.30;0.73;;;22.80;44.50;;;;;;5048961;28;20025;-61
2023/09/25 09:30:36;;;;;;;1.85;1.08;;;22.80;44.50;;;;;;5031145;28;21297;-63
2023/09/25 09:33:08;;;;;;;1.65;0.90;;;22.80;44.50;;;;;;5048445;28;20045;-63
2023/09/25 09:35:35;;;;;;;2.05;0.93;;;22.80;44.40;;;;;;5048336;28;20052;-62
2023/09/25 09:38:05;;;;;;;2.50;1.10;;;22.90;44.40;;;;;;5048009;28;20048;-63
2023/09/25 09:40:31;;;;;;;1.77;1.02;;;22.90;44.40;;;;;;5049716;28;20028;-64
2023/09/25 09:42:58;;;;;;;1.83;0.95;;;22.90;44.40;;;;;;5048399;28;20052;-65
2023/09/25 09:45:28;;;;;;;1.80;0.95;;;22.90;44.40;;;;;;5049086;28;20359;-65
2023/09/25 09:47:56;;;;;;;1.20;0.80;;;22.90;44.40;;;;;;5047328;28;20032;-63
2023/09/25 09:50:27;;;;;;;3.10;0.93;;;22.90;44.30;;;;;;5049163;28;20040;-63
2023/09/25 09:52:54;;;;;;;1.25;0.80;;;22.90;44.30;;;;;;5031328;28;20100;-62
2023/09/25 09:55:24;;;;;;;1.48;1.00;;;22.90;44.30;;;;;;5049053;28;20036;-64
2023/09/25 09:57:50;;;;;;;1.30;0.82;;;22.90;44.30;;;;;;5028175;28;20469;-65
2023/09/25 10:00:17;;;;;;;1.63;1.00;;;22.90;44.30;;;;;;5048987;28;20081;-65
2023/09/25 10:02:45;;;;;;;1.60;0.85;;;22.90;44.30;;;;;;5048192;28;20432;-62
2023/09/25 10:05:13;;;;;;;1.08;0.80;;;23.00;44.30;;;;;;5048558;28;20048;-66
2023/09/25 10:08:06;;;;;;;2.20;1.08;;;23.00;44.40;;;;;;5044475;28;20047;-62
2023/09/25 10:10:41;;;;;;;1.98;1.08;;;23.00;44.30;;;;;;5027858;28;20154;-63
2023/09/25 10:13:13;;;;;;;1.40;0.88;;;23.00;44.30;;;;;;5039556;28;20376;-62
2023/09/25 10:15:39;;;;;;;1.10;0.95;;;23.00;44.30;;;;;;5042301;28;20355;-62
2023/09/25 10:18:09;;;;;;;1.10;0.95;;;23.00;44.30;;;;;;5025473;28;20427;-65
2023/09/25 10:20:42;;;;;;;0.90;0.70;;;23.00;44.40;;;;;;5048814;28;21729;-64
2023/09/25 10:23:22;;;;;;;1.42;0.90;;;23.00;44.70;;;;;;5028380;28;20053;-64
2023/09/25 10:25:52;;;;;;;3.47;1.30;;;23.10;45.00;;;;;;5030862;28;20447;-61
2023/09/25 10:28:28;;;;;;;1.52;1.10;;;23.10;45.10;;;;;;5040919;28;20094;-64
2023/09/25 10:30:58;;;;;;;1.45;0.85;;;23.10;45.10;;;;;;5036529;28;20091;-61
2023/09/25 10:33:37;;;;;;;2.15;1.00;;;23.10;45.20;;;;;;5039979;28;20057;-62
2023/09/25 10:36:05;;;;;;;1.20;0.75;;;23.20;45.20;;;;;;5019873;28;20097;-60
2023/09/25 10:38:36;;;;;;;1.75;0.95;;;23.20;45.10;;;;;;5020481;28;20051;-57
2023/09/25 10:41:06;;;;;;;1.65;1.13;;;23.30;45.00;;;;;;5045215;28;20073;-57
2023/09/25 10:43:34;;;;;;;1.52;1.00;;;23.40;44.80;;;;;;5051420;28;20052;-60
2023/09/25 10:46:02;;;;;;;1.70;1.10;;;23.50;44.70;;;;;;5026814;28;20013;-60
2023/09/25 10:48:29;;;;;;;1.63;1.05;;;23.50;44.50;;;;;;5052054;28;20024;-59
2023/09/25 10:50:55;;;;;;;1.23;0.85;;;23.60;44.30;;;;;;5020087;28;20095;-62
2023/09/25 10:53:22;;;;;;;2.38;1.00;;;23.80;44.20;;;;;;5042953;28;20067;-62
2023/09/25 10:55:48;;;;;;;2.38;1.20;;;23.90;44.10;;;;;;5047159;28;20065;-62
2023/09/25 10:58:15;;;;;;;1.65;0.80;;;23.90;44.00;;;;;;5046136;28;20087;-61
2023/09/25 11:00:42;;;;;;;2.63;1.10;;;24.00;44.60;;;;;;5043794;28;20039;-61
2023/09/25 11:03:09;;;;;;;2.63;0.98;;;24.10;43.90;;;;;;5043038;28;20111;-60
2023/09/25 11:05:38;;;;;;;3.58;1.13;;;24.10;43.70;;;;;;5029163;28;20032;-62
2023/09/25 11:08:06;;;;;;;1.25;0.90;;;24.20;43.60;;;;;;5042937;28;20131;-64
2023/09/25 11:10:35;;;;;;;1.48;0.90;;;24.20;43.30;;;;;;5045622;28;20017;-62
2023/09/25 11:13:02;;;;;;;3.35;1.63;;;24.30;43.10;;;;;;5040110;28;20332;-62
2023/09/25 11:15:29;;;;;;;2.30;1.23;;;24.40;43.00;;;;;;5021463;28;20113;-65
2023/09/25 11:17:56;;;;;;;2.20;1.08;;;24.40;42.80;;;;;;5046661;28;20021;-63
2023/09/25 11:20:29;;;;;;;1.20;0.95;;;24.50;42.60;;;;;;5042797;28;20372;-65
2023/09/25 11:23:15;;;;;;;2.42;1.30;;;24.50;42.40;;;;;;5028309;28;20365;-64
2023/09/25 11:25:51;;;;;;;1.83;1.10;;;24.60;42.20;;;;;;5037643;28;20032;-64
2023/09/25 11:28:22;;;;;;;1.67;0.98;;;24.60;42.80;;;;;;5042979;28;20040;-65
2023/09/25 11:30:48;;;;;;;1.38;1.02;;;24.60;42.00;;;;;;5036094;28;20057;-62
2023/09/25 11:33:19;;;;;;;2.30;1.30;;;24.60;41.90;;;;;;5042900;28;20102;-65
2023/09/25 11:35:52;;;;;;;2.28;1.23;;;24.60;41.90;;;;;;5039839;28;20076;-64
2023/09/25 11:38:24;;;;;;;1.73;1.15;;;24.60;41.90;;;;;;5018729;28;20025;-61
2023/09/25 11:40:51;;;;;;;1.20;1.00;;;24.60;42.00;;;;;;5026346;28;20029;-64
2023/09/25 11:43:17;;;;;;;2.10;1.13;;;24.50;42.00;;;;;;5025149;28;20037;-65
2023/09/25 11:45:43;;;;;;;1.40;0.93;;;24.50;42.20;;;;;;5040353;28;20036;-64
2023/09/25 11:48:10;;;;;;;2.50;1.17;;;24.40;42.20;;;;;;5046308;28;20030;-64
2023/09/25 11:50:37;;;;;;;1.88;1.13;;;24.40;42.30;;;;;;5042092;28;20032;-63
2023/09/25 11:53:03;;;;;;;1.23;1.00;;;24.40;42.40;;;;;;5040610;28;20051;-63
2023/09/25 11:55:29;;;;;;;1.35;1.00;;;24.40;42.50;;;;;;5031883;28;20136;-65
2023/09/25 11:57:58;;;;;;;1.50;0.98;;;24.30;42.50;;;;;;5039814;28;20117;-65
2023/09/25 12:00:27;;;;;;;2.40;1.23;;;24.30;42.60;;;;;;5042822;28;20087;-63
2023/09/25 12:02:54;;;;;;;1.27;0.90;;;24.30;42.70;;;;;;5042600;28;20025;-61
2023/09/25 12:05:21;;;;;;;2.13;1.15;;;24.30;42.70;;;;;;5043893;28;20034;-65
2023/09/25 12:07:47;;;;;;;2.45;1.27;;;24.20;42.70;;;;;;5028160;28;20075;-62
2023/09/25 12:10:18;;;;;;;2.20;1.30;;;24.20;42.70;;;;;;5041422;28;20037;-64
2023/09/25 12:12:45;;;;;;;3.45;1.20;;;24.20;42.80;;;;;;5039373;28;20064;-61
2023/09/25 12:15:16;;;;;;;2.13;1.10;;;24.20;42.80;;;;;;5038963;28;20037;-61
2023/09/25 12:17:43;;;;;;;3.60;0.85;;;24.20;42.80;;;;;;5044623;28;20075;-57
2023/09/25 12:20:13;;;;;;;2.60;0.82;;;24.20;42.90;;;;;;5044585;28;20091;-63
2023/09/25 12:22:45;;;;;;;1.17;0.90;;;24.20;43.50;;;;;;5025096;28;20045;-64
2023/09/25 12:25:14;;;;;;;1.25;0.93;;;24.30;42.90;;;;;;5043343;28;20090;-64
2023/09/25 12:27:43;;;;;;;1.83;1.08;;;24.30;42.90;;;;;;5042972;28;20067;-62
2023/09/25 12:30:11;;;;;;;1.38;1.00;;;24.40;42.90;;;;;;5048701;28;20033;-62
2023/09/25 12:32:38;;;;;;;1.50;1.08;;;24.40;42.80;;;;;;5040187;28;20036;-62
2023/09/25 12:35:05;;;;;;;0.98;0.75;;;24.50;42.70;;;;;;5025314;28;20155;-63
2023/09/25 12:37:31;;;;;;;1.85;0.90;;;24.60;42.90;;;;;;5046889;28;20349;-62
2023/09/25 12:39:58;;;;;;;1.52;1.00;;;24.70;42.70;;;;;;5028850;28;20056;-63
2023/09/25 12:42:23;;;;;;;1.75;0.90;;;24.70;42.60;;;;;;5009566;28;20101;-62
2023/09/25 12:44:50;;;;;;;2.17;1.30;;;24.70;42.50;;;;;;5044776;28;20099;-61
2023/09/25 12:47:18;;;;;;;1.20;0.88;;;24.80;42.40;;;;;;5045383;28;20091;-60
2023/09/25 12:49:44;;;;;;;1.73;1.20;;;24.90;43.00;;;;;;5046715;28;20449;-63